sensor_id;sensor_type;location;lat;lon;timestamp;P1;durP1;ratioP1;P2;durP2;ratioP2
6306;SDS011;3186;54.062;9.962;2023-04-15T00:00:05;4.77;;;3.93;;
6306;SDS011;3186;54.062;9.962;2023-04-15T00:02:38;5.00;;;3.90;;
6306;SDS011;3186;54.062;9.962;2023-04-15T00:05:04;4.57;;;4.17;;
6306;SDS011;3186;54.062;9.962;2023-04-15T00:07:30;4.33;;;3.90;;
6306;SDS011;3186;54.062;9.962;2023-04-15T00:09:57;5.43;;;4.10;;
6306;SDS011;3186;54.062;9.962;2023-04-15T00:12:23;6.00;;;4.33;;
6306;SDS011;3186;54.062;9.962;2023-04-15T00:14:50;6.40;;;4.83;;
6306;SDS011;3186;54.062;9.962;2023-04-15T00:17:17;4.80;;;3.97;;
6306;SDS011;3186;54.062;9.962;2023-04-15T00:19:43;5.87;;;4.23;;
6306;SDS011;3186;54.062;9.962;2023-04-15T00:22:10;4.50;;;4.07;;
6306;SDS011;3186;54.062;9.962;2023-04-15T00:24:36;6.37;;;4.57;;
6306;SDS011;3186;54.062;9.962;2023-04-15T00:27:02;6.00;;;4.13;;
6306;SDS011;3186;54.062;9.962;2023-04-15T00:29:29;5.50;;;4.60;;
6306;SDS011;3186;54.062;9.962;2023-04-15T00:31:55;5.23;;;4.33;;
6306;SDS011;3186;54.062;9.962;2023-04-15T00:34:24;5.13;;;4.17;;
6306;SDS011;3186;54.062;9.962;2023-04-15T00:36:52;5.27;;;4.43;;
6306;SDS011;3186;54.062;9.962;2023-04-15T00:39:18;8.03;;;4.67;;
6306;SDS011;3186;54.062;9.962;2023-04-15T00:41:45;7.63;;;5.00;;
6306;SDS011;3186;54.062;9.962;2023-04-15T00:44:11;6.70;;;4.90;;
6306;SDS011;3186;54.062;9.962;2023-04-15T00:46:38;5.90;;;4.70;;
6306;SDS011;3186;54.062;9.962;2023-04-15T00:49:05;9.73;;;5.13;;
6306;SDS011;3186;54.062;9.962;2023-04-15T00:51:34;6.47;;;5.03;;
6306;SDS011;3186;54.062;9.962;2023-04-15T00:54:02;7.03;;;5.20;;
6306;SDS011;3186;54.062;9.962;2023-04-15T00:56:28;6.50;;;5.13;;
6306;SDS011;3186;54.062;9.962;2023-04-15T00:58:55;6.03;;;4.67;;
6306;SDS011;3186;54.062;9.962;2023-04-15T01:01:23;6.27;;;5.03;;
6306;SDS011;3186;54.062;9.962;2023-04-15T01:03:50;5.17;;;4.67;;
6306;SDS011;3186;54.062;9.962;2023-04-15T01:06:16;5.97;;;4.70;;
6306;SDS011;3186;54.062;9.962;2023-04-15T01:08:43;7.87;;;5.80;;
6306;SDS011;3186;54.062;9.962;2023-04-15T01:11:10;6.30;;;5.10;;
6306;SDS011;3186;54.062;9.962;2023-04-15T01:13:38;7.43;;;4.63;;
6306;SDS011;3186;54.062;9.962;2023-04-15T01:16:04;6.33;;;4.73;;
6306;SDS011;3186;54.062;9.962;2023-04-15T01:18:31;6.17;;;4.80;;
6306;SDS011;3186;54.062;9.962;2023-04-15T01:20:59;6.23;;;5.20;;
6306;SDS011;3186;54.062;9.962;2023-04-15T01:23:26;5.80;;;5.00;;
6306;SDS011;3186;54.062;9.962;2023-04-15T01:25:52;6.27;;;5.07;;
6306;SDS011;3186;54.062;9.962;2023-04-15T01:28:18;7.30;;;4.47;;
6306;SDS011;3186;54.062;9.962;2023-04-15T01:30:44;6.87;;;5.10;;
6306;SDS011;3186;54.062;9.962;2023-04-15T01:33:10;6.00;;;4.43;;
6306;SDS011;3186;54.062;9.962;2023-04-15T01:35:37;6.07;;;5.00;;
6306;SDS011;3186;54.062;9.962;2023-04-15T01:38:06;8.50;;;5.60;;
6306;SDS011;3186;54.062;9.962;2023-04-15T01:40:33;5.87;;;4.70;;
6306;SDS011;3186;54.062;9.962;2023-04-15T01:43:00;6.40;;;5.07;;
6306;SDS011;3186;54.062;9.962;2023-04-15T01:45:26;6.37;;;4.50;;
6306;SDS011;3186;54.062;9.962;2023-04-15T01:47:52;5.67;;;4.40;;
6306;SDS011;3186;54.062;9.962;2023-04-15T01:50:18;6.93;;;4.97;;
6306;SDS011;3186;54.062;9.962;2023-04-15T01:52:45;5.30;;;4.17;;
6306;SDS011;3186;54.062;9.962;2023-04-15T01:55:12;6.87;;;5.07;;
6306;SDS011;3186;54.062;9.962;2023-04-15T01:57:38;8.00;;;5.23;;
6306;SDS011;3186;54.062;9.962;2023-04-15T02:00:05;7.80;;;5.33;;
6306;SDS011;3186;54.062;9.962;2023-04-15T02:02:38;8.17;;;5.17;;
6306;SDS011;3186;54.062;9.962;2023-04-15T02:05:04;8.03;;;5.50;;
6306;SDS011;3186;54.062;9.962;2023-04-15T02:07:30;7.53;;;5.20;;
6306;SDS011;3186;54.062;9.962;2023-04-15T02:09:56;9.83;;;6.10;;
6306;SDS011;3186;54.062;9.962;2023-04-15T02:12:22;7.73;;;5.70;;
6306;SDS011;3186;54.062;9.962;2023-04-15T02:14:48;8.27;;;5.50;;
6306;SDS011;3186;54.062;9.962;2023-04-15T02:17:14;9.87;;;6.87;;
6306;SDS011;3186;54.062;9.962;2023-04-15T02:19:41;11.57;;;7.10;;
6306;SDS011;3186;54.062;9.962;2023-04-15T02:22:07;9.13;;;6.20;;
6306;SDS011;3186;54.062;9.962;2023-04-15T02:24:33;10.00;;;6.70;;
6306;SDS011;3186;54.062;9.962;2023-04-15T02:27:01;9.43;;;6.73;;
6306;SDS011;3186;54.062;9.962;2023-04-15T02:29:27;12.17;;;7.70;;
6306;SDS011;3186;54.062;9.962;2023-04-15T02:31:53;10.47;;;7.43;;
6306;SDS011;3186;54.062;9.962;2023-04-15T02:34:19;14.47;;;8.90;;
6306;SDS011;3186;54.062;9.962;2023-04-15T02:36:45;11.30;;;7.60;;
6306;SDS011;3186;54.062;9.962;2023-04-15T02:39:13;12.93;;;8.47;;
6306;SDS011;3186;54.062;9.962;2023-04-15T02:41:41;14.33;;;8.63;;
6306;SDS011;3186;54.062;9.962;2023-04-15T02:44:09;12.77;;;8.63;;
6306;SDS011;3186;54.062;9.962;2023-04-15T02:46:37;13.83;;;9.43;;
6306;SDS011;3186;54.062;9.962;2023-04-15T02:49:03;13.77;;;9.37;;
6306;SDS011;3186;54.062;9.962;2023-04-15T02:51:29;14.27;;;9.73;;
6306;SDS011;3186;54.062;9.962;2023-04-15T02:53:57;14.97;;;9.80;;
6306;SDS011;3186;54.062;9.962;2023-04-15T02:56:23;16.90;;;10.20;;
6306;SDS011;3186;54.062;9.962;2023-04-15T02:58:49;15.63;;;10.33;;
6306;SDS011;3186;54.062;9.962;2023-04-15T03:01:15;16.60;;;10.03;;
6306;SDS011;3186;54.062;9.962;2023-04-15T03:03:41;17.10;;;11.03;;
6306;SDS011;3186;54.062;9.962;2023-04-15T03:06:07;17.50;;;11.40;;
6306;SDS011;3186;54.062;9.962;2023-04-15T03:08:33;17.77;;;11.63;;
6306;SDS011;3186;54.062;9.962;2023-04-15T03:10:59;17.73;;;11.13;;
6306;SDS011;3186;54.062;9.962;2023-04-15T03:13:27;17.00;;;11.63;;
6306;SDS011;3186;54.062;9.962;2023-04-15T03:15:54;19.67;;;12.63;;
6306;SDS011;3186;54.062;9.962;2023-04-15T03:18:21;20.13;;;12.47;;
6306;SDS011;3186;54.062;9.962;2023-04-15T03:20:47;17.47;;;11.87;;
6306;SDS011;3186;54.062;9.962;2023-04-15T03:23:14;19.40;;;12.13;;
6306;SDS011;3186;54.062;9.962;2023-04-15T03:25:40;19.37;;;12.23;;
6306;SDS011;3186;54.062;9.962;2023-04-15T03:28:06;22.83;;;13.83;;
6306;SDS011;3186;54.062;9.962;2023-04-15T03:30:32;21.00;;;13.07;;
6306;SDS011;3186;54.062;9.962;2023-04-15T03:32:58;21.73;;;13.77;;
6306;SDS011;3186;54.062;9.962;2023-04-15T03:35:24;22.07;;;13.53;;
6306;SDS011;3186;54.062;9.962;2023-04-15T03:37:50;21.37;;;13.40;;
6306;SDS011;3186;54.062;9.962;2023-04-15T03:40:16;18.93;;;12.23;;
6306;SDS011;3186;54.062;9.962;2023-04-15T03:42:42;24.07;;;15.20;;
6306;SDS011;3186;54.062;9.962;2023-04-15T03:45:08;22.80;;;15.13;;
6306;SDS011;3186;54.062;9.962;2023-04-15T03:47:34;24.47;;;14.17;;
6306;SDS011;3186;54.062;9.962;2023-04-15T03:50:00;23.60;;;13.90;;
6306;SDS011;3186;54.062;9.962;2023-04-15T03:52:25;24.27;;;14.63;;
6306;SDS011;3186;54.062;9.962;2023-04-15T03:54:51;20.57;;;13.70;;
6306;SDS011;3186;54.062;9.962;2023-04-15T03:57:17;22.40;;;14.03;;
6306;SDS011;3186;54.062;9.962;2023-04-15T03:59:43;21.57;;;13.10;;
6306;SDS011;3186;54.062;9.962;2023-04-15T04:02:09;23.33;;;13.63;;
6306;SDS011;3186;54.062;9.962;2023-04-15T04:04:35;21.20;;;13.87;;
6306;SDS011;3186;54.062;9.962;2023-04-15T04:07:00;21.97;;;13.93;;
6306;SDS011;3186;54.062;9.962;2023-04-15T04:09:26;19.47;;;12.53;;
6306;SDS011;3186;54.062;9.962;2023-04-15T04:11:52;21.00;;;14.17;;
6306;SDS011;3186;54.062;9.962;2023-04-15T04:14:18;20.20;;;13.30;;
6306;SDS011;3186;54.062;9.962;2023-04-15T04:16:44;22.10;;;14.10;;
6306;SDS011;3186;54.062;9.962;2023-04-15T04:19:09;23.13;;;14.07;;
6306;SDS011;3186;54.062;9.962;2023-04-15T04:21:35;22.13;;;13.50;;
6306;SDS011;3186;54.062;9.962;2023-04-15T04:24:01;21.00;;;13.10;;
6306;SDS011;3186;54.062;9.962;2023-04-15T04:26:27;19.17;;;13.33;;
6306;SDS011;3186;54.062;9.962;2023-04-15T04:28:53;21.33;;;13.77;;
6306;SDS011;3186;54.062;9.962;2023-04-15T04:31:19;22.03;;;13.37;;
6306;SDS011;3186;54.062;9.962;2023-04-15T04:33:45;25.23;;;14.93;;
6306;SDS011;3186;54.062;9.962;2023-04-15T04:36:11;20.90;;;12.93;;
6306;SDS011;3186;54.062;9.962;2023-04-15T04:38:37;21.03;;;13.63;;
6306;SDS011;3186;54.062;9.962;2023-04-15T04:41:02;19.13;;;13.23;;
6306;SDS011;3186;54.062;9.962;2023-04-15T04:43:28;20.70;;;14.10;;
6306;SDS011;3186;54.062;9.962;2023-04-15T04:45:54;23.30;;;15.07;;
6306;SDS011;3186;54.062;9.962;2023-04-15T04:48:20;24.43;;;15.73;;
6306;SDS011;3186;54.062;9.962;2023-04-15T04:50:47;22.30;;;13.67;;
6306;SDS011;3186;54.062;9.962;2023-04-15T04:53:13;24.33;;;14.43;;
6306;SDS011;3186;54.062;9.962;2023-04-15T04:55:40;22.13;;;13.87;;
6306;SDS011;3186;54.062;9.962;2023-04-15T04:58:06;25.07;;;14.87;;
6306;SDS011;3186;54.062;9.962;2023-04-15T05:00:32;24.47;;;15.13;;
6306;SDS011;3186;54.062;9.962;2023-04-15T05:02:58;27.00;;;15.70;;
6306;SDS011;3186;54.062;9.962;2023-04-15T05:05:24;20.87;;;13.87;;
6306;SDS011;3186;54.062;9.962;2023-04-15T05:07:51;24.50;;;14.70;;
6306;SDS011;3186;54.062;9.962;2023-04-15T05:10:17;23.73;;;15.23;;
6306;SDS011;3186;54.062;9.962;2023-04-15T05:12:43;24.10;;;15.50;;
6306;SDS011;3186;54.062;9.962;2023-04-15T05:15:09;24.80;;;15.03;;
6306;SDS011;3186;54.062;9.962;2023-04-15T05:17:35;26.90;;;16.90;;
6306;SDS011;3186;54.062;9.962;2023-04-15T05:20:01;22.67;;;15.17;;
6306;SDS011;3186;54.062;9.962;2023-04-15T05:22:27;22.80;;;14.40;;
6306;SDS011;3186;54.062;9.962;2023-04-15T05:24:53;28.57;;;16.80;;
6306;SDS011;3186;54.062;9.962;2023-04-15T05:27:20;28.93;;;17.53;;
6306;SDS011;3186;54.062;9.962;2023-04-15T05:29:46;29.17;;;18.10;;
6306;SDS011;3186;54.062;9.962;2023-04-15T05:32:12;27.63;;;17.13;;
6306;SDS011;3186;54.062;9.962;2023-04-15T05:34:38;25.23;;;16.60;;
6306;SDS011;3186;54.062;9.962;2023-04-15T05:37:04;27.60;;;16.10;;
6306;SDS011;3186;54.062;9.962;2023-04-15T05:39:30;24.40;;;16.53;;
6306;SDS011;3186;54.062;9.962;2023-04-15T05:41:56;24.77;;;16.63;;
6306;SDS011;3186;54.062;9.962;2023-04-15T05:44:22;27.40;;;17.43;;
6306;SDS011;3186;54.062;9.962;2023-04-15T05:46:48;28.87;;;17.83;;
6306;SDS011;3186;54.062;9.962;2023-04-15T05:49:14;28.90;;;17.93;;
6306;SDS011;3186;54.062;9.962;2023-04-15T05:51:40;31.50;;;18.53;;
6306;SDS011;3186;54.062;9.962;2023-04-15T05:54:06;31.40;;;19.73;;
6306;SDS011;3186;54.062;9.962;2023-04-15T05:56:32;33.17;;;21.50;;
6306;SDS011;3186;54.062;9.962;2023-04-15T05:58:58;38.10;;;21.70;;
6306;SDS011;3186;54.062;9.962;2023-04-15T06:01:23;31.97;;;20.17;;
6306;SDS011;3186;54.062;9.962;2023-04-15T06:03:50;34.27;;;22.20;;
6306;SDS011;3186;54.062;9.962;2023-04-15T06:06:15;34.57;;;21.83;;
6306;SDS011;3186;54.062;9.962;2023-04-15T06:08:41;36.37;;;22.43;;
6306;SDS011;3186;54.062;9.962;2023-04-15T06:11:07;36.30;;;23.63;;
6306;SDS011;3186;54.062;9.962;2023-04-15T06:13:33;32.00;;;21.20;;
6306;SDS011;3186;54.062;9.962;2023-04-15T06:15:59;39.90;;;22.70;;
6306;SDS011;3186;54.062;9.962;2023-04-15T06:18:24;37.20;;;22.53;;
6306;SDS011;3186;54.062;9.962;2023-04-15T06:20:50;37.83;;;24.13;;
6306;SDS011;3186;54.062;9.962;2023-04-15T06:23:16;35.07;;;21.60;;
6306;SDS011;3186;54.062;9.962;2023-04-15T06:25:42;37.33;;;23.37;;
6306;SDS011;3186;54.062;9.962;2023-04-15T06:28:08;37.23;;;22.93;;
6306;SDS011;3186;54.062;9.962;2023-04-15T06:30:34;35.47;;;23.00;;
6306;SDS011;3186;54.062;9.962;2023-04-15T06:33:01;38.43;;;22.87;;
6306;SDS011;3186;54.062;9.962;2023-04-15T06:35:32;37.10;;;23.40;;
6306;SDS011;3186;54.062;9.962;2023-04-15T06:37:58;35.67;;;22.97;;
6306;SDS011;3186;54.062;9.962;2023-04-15T06:40:24;37.27;;;22.23;;
6306;SDS011;3186;54.062;9.962;2023-04-15T06:42:50;39.20;;;23.07;;
6306;SDS011;3186;54.062;9.962;2023-04-15T06:45:15;39.67;;;23.67;;
6306;SDS011;3186;54.062;9.962;2023-04-15T06:47:41;41.93;;;23.30;;
6306;SDS011;3186;54.062;9.962;2023-04-15T06:50:07;40.67;;;25.40;;
6306;SDS011;3186;54.062;9.962;2023-04-15T06:52:34;39.90;;;23.33;;
6306;SDS011;3186;54.062;9.962;2023-04-15T06:55:00;38.43;;;23.47;;
6306;SDS011;3186;54.062;9.962;2023-04-15T06:57:26;36.10;;;22.77;;
6306;SDS011;3186;54.062;9.962;2023-04-15T06:59:53;36.77;;;24.03;;
6306;SDS011;3186;54.062;9.962;2023-04-15T07:02:19;39.07;;;23.40;;
6306;SDS011;3186;54.062;9.962;2023-04-15T07:04:45;37.60;;;23.53;;
6306;SDS011;3186;54.062;9.962;2023-04-15T07:07:11;34.23;;;23.10;;
6306;SDS011;3186;54.062;9.962;2023-04-15T07:09:37;41.60;;;25.53;;
6306;SDS011;3186;54.062;9.962;2023-04-15T07:12:03;39.33;;;24.37;;
6306;SDS011;3186;54.062;9.962;2023-04-15T07:14:29;43.20;;;25.20;;
6306;SDS011;3186;54.062;9.962;2023-04-15T07:16:54;36.90;;;24.53;;
6306;SDS011;3186;54.062;9.962;2023-04-15T07:19:21;36.30;;;23.33;;
6306;SDS011;3186;54.062;9.962;2023-04-15T07:21:48;34.77;;;23.03;;
6306;SDS011;3186;54.062;9.962;2023-04-15T07:24:13;37.87;;;23.77;;
6306;SDS011;3186;54.062;9.962;2023-04-15T07:26:42;39.87;;;23.50;;
6306;SDS011;3186;54.062;9.962;2023-04-15T07:29:09;39.50;;;25.37;;
6306;SDS011;3186;54.062;9.962;2023-04-15T07:31:35;41.50;;;25.33;;
6306;SDS011;3186;54.062;9.962;2023-04-15T07:34:01;35.63;;;22.93;;
6306;SDS011;3186;54.062;9.962;2023-04-15T07:36:27;33.17;;;22.70;;
6306;SDS011;3186;54.062;9.962;2023-04-15T07:38:53;39.30;;;24.27;;
6306;SDS011;3186;54.062;9.962;2023-04-15T07:41:19;38.87;;;24.03;;
6306;SDS011;3186;54.062;9.962;2023-04-15T07:43:46;37.47;;;24.37;;
6306;SDS011;3186;54.062;9.962;2023-04-15T07:46:13;42.77;;;25.13;;
6306;SDS011;3186;54.062;9.962;2023-04-15T07:48:38;38.03;;;23.53;;
6306;SDS011;3186;54.062;9.962;2023-04-15T07:51:05;36.13;;;23.67;;
6306;SDS011;3186;54.062;9.962;2023-04-15T07:53:30;35.43;;;23.00;;
6306;SDS011;3186;54.062;9.962;2023-04-15T07:55:57;38.57;;;23.60;;
6306;SDS011;3186;54.062;9.962;2023-04-15T07:58:23;39.27;;;23.63;;
6306;SDS011;3186;54.062;9.962;2023-04-15T08:00:49;31.17;;;21.10;;
6306;SDS011;3186;54.062;9.962;2023-04-15T08:03:15;36.30;;;23.83;;
6306;SDS011;3186;54.062;9.962;2023-04-15T08:05:41;36.90;;;23.37;;
6306;SDS011;3186;54.062;9.962;2023-04-15T08:08:07;36.17;;;23.47;;
6306;SDS011;3186;54.062;9.962;2023-04-15T08:10:33;36.13;;;23.17;;
6306;SDS011;3186;54.062;9.962;2023-04-15T08:12:58;37.60;;;23.80;;
6306;SDS011;3186;54.062;9.962;2023-04-15T08:15:25;31.83;;;22.17;;
6306;SDS011;3186;54.062;9.962;2023-04-15T08:17:52;33.00;;;21.97;;
6306;SDS011;3186;54.062;9.962;2023-04-15T08:20:18;34.37;;;22.83;;
6306;SDS011;3186;54.062;9.962;2023-04-15T08:22:44;31.43;;;22.03;;
6306;SDS011;3186;54.062;9.962;2023-04-15T08:25:15;37.43;;;22.63;;
6306;SDS011;3186;54.062;9.962;2023-04-15T08:27:41;36.27;;;22.47;;
6306;SDS011;3186;54.062;9.962;2023-04-15T08:30:07;35.90;;;21.90;;
6306;SDS011;3186;54.062;9.962;2023-04-15T08:32:33;36.03;;;23.10;;
6306;SDS011;3186;54.062;9.962;2023-04-15T08:34:59;36.53;;;22.03;;
6306;SDS011;3186;54.062;9.962;2023-04-15T08:37:25;38.80;;;24.17;;
6306;SDS011;3186;54.062;9.962;2023-04-15T08:39:51;33.83;;;22.30;;
6306;SDS011;3186;54.062;9.962;2023-04-15T08:42:18;37.33;;;24.60;;
6306;SDS011;3186;54.062;9.962;2023-04-15T08:44:51;39.17;;;23.00;;
6306;SDS011;3186;54.062;9.962;2023-04-15T08:47:19;32.87;;;22.07;;
6306;SDS011;3186;54.062;9.962;2023-04-15T08:49:48;39.57;;;23.97;;
6306;SDS011;3186;54.062;9.962;2023-04-15T08:52:18;37.37;;;23.67;;
6306;SDS011;3186;54.062;9.962;2023-04-15T08:54:44;31.90;;;21.70;;
6306;SDS011;3186;54.062;9.962;2023-04-15T08:57:10;36.57;;;22.90;;
6306;SDS011;3186;54.062;9.962;2023-04-15T08:59:37;36.03;;;23.63;;
6306;SDS011;3186;54.062;9.962;2023-04-15T09:02:03;37.37;;;22.93;;
6306;SDS011;3186;54.062;9.962;2023-04-15T09:04:30;37.60;;;24.73;;
6306;SDS011;3186;54.062;9.962;2023-04-15T09:06:56;38.33;;;23.80;;
6306;SDS011;3186;54.062;9.962;2023-04-15T09:09:22;36.30;;;22.97;;
6306;SDS011;3186;54.062;9.962;2023-04-15T09:11:48;37.07;;;24.20;;
6306;SDS011;3186;54.062;9.962;2023-04-15T09:14:15;42.30;;;24.80;;
6306;SDS011;3186;54.062;9.962;2023-04-15T09:17:01;39.53;;;24.10;;
6306;SDS011;3186;54.062;9.962;2023-04-15T09:19:29;40.73;;;25.70;;
6306;SDS011;3186;54.062;9.962;2023-04-15T09:21:57;42.13;;;25.33;;
6306;SDS011;3186;54.062;9.962;2023-04-15T09:24:23;36.87;;;23.27;;
6306;SDS011;3186;54.062;9.962;2023-04-15T09:26:51;35.07;;;23.30;;
6306;SDS011;3186;54.062;9.962;2023-04-15T09:29:18;37.73;;;23.10;;
6306;SDS011;3186;54.062;9.962;2023-04-15T09:31:45;37.60;;;24.77;;
6306;SDS011;3186;54.062;9.962;2023-04-15T09:34:11;35.27;;;22.97;;
6306;SDS011;3186;54.062;9.962;2023-04-15T09:39:12;37.03;;;22.77;;
6306;SDS011;3186;54.062;9.962;2023-04-15T09:41:38;38.40;;;23.27;;
6306;SDS011;3186;54.062;9.962;2023-04-15T09:44:05;36.10;;;22.53;;
6306;SDS011;3186;54.062;9.962;2023-04-15T09:46:40;33.97;;;23.17;;
6306;SDS011;3186;54.062;9.962;2023-04-15T09:49:07;34.03;;;23.23;;
6306;SDS011;3186;54.062;9.962;2023-04-15T09:51:37;33.03;;;22.10;;
6306;SDS011;3186;54.062;9.962;2023-04-15T09:54:03;35.10;;;21.87;;
6306;SDS011;3186;54.062;9.962;2023-04-15T09:56:36;35.00;;;22.90;;
6306;SDS011;3186;54.062;9.962;2023-04-15T09:59:05;33.33;;;22.40;;
6306;SDS011;3186;54.062;9.962;2023-04-15T10:01:32;34.87;;;20.97;;
6306;SDS011;3186;54.062;9.962;2023-04-15T10:03:58;34.77;;;21.83;;
6306;SDS011;3186;54.062;9.962;2023-04-15T10:06:27;32.47;;;21.63;;
6306;SDS011;3186;54.062;9.962;2023-04-15T10:08:54;31.67;;;20.13;;
6306;SDS011;3186;54.062;9.962;2023-04-15T10:11:20;32.60;;;21.93;;
6306;SDS011;3186;54.062;9.962;2023-04-15T10:13:48;31.00;;;20.87;;
6306;SDS011;3186;54.062;9.962;2023-04-15T10:16:16;37.33;;;24.67;;
6306;SDS011;3186;54.062;9.962;2023-04-15T10:18:44;30.13;;;20.97;;
6306;SDS011;3186;54.062;9.962;2023-04-15T10:21:12;33.43;;;20.90;;
6306;SDS011;3186;54.062;9.962;2023-04-15T10:23:42;29.60;;;20.53;;
6306;SDS011;3186;54.062;9.962;2023-04-15T10:26:11;30.83;;;21.33;;
6306;SDS011;3186;54.062;9.962;2023-04-15T10:28:42;27.80;;;20.30;;
6306;SDS011;3186;54.062;9.962;2023-04-15T10:31:14;31.47;;;21.53;;
6306;SDS011;3186;54.062;9.962;2023-04-15T10:33:41;33.70;;;23.23;;
6306;SDS011;3186;54.062;9.962;2023-04-15T10:36:08;34.33;;;22.70;;
6306;SDS011;3186;54.062;9.962;2023-04-15T10:38:39;25.13;;;18.83;;
6306;SDS011;3186;54.062;9.962;2023-04-15T10:43:39;26.97;;;18.60;;
6306;SDS011;3186;54.062;9.962;2023-04-15T10:46:09;25.60;;;18.77;;
6306;SDS011;3186;54.062;9.962;2023-04-15T10:48:35;24.87;;;16.77;;
6306;SDS011;3186;54.062;9.962;2023-04-15T10:51:01;23.13;;;17.83;;
6306;SDS011;3186;54.062;9.962;2023-04-15T10:53:29;23.77;;;17.83;;
6306;SDS011;3186;54.062;9.962;2023-04-15T10:55:58;24.50;;;17.03;;
6306;SDS011;3186;54.062;9.962;2023-04-15T10:58:24;23.77;;;16.90;;
6306;SDS011;3186;54.062;9.962;2023-04-15T11:00:52;22.50;;;16.40;;
6306;SDS011;3186;54.062;9.962;2023-04-15T11:03:37;21.30;;;16.57;;
6306;SDS011;3186;54.062;9.962;2023-04-15T11:06:06;20.87;;;15.40;;
6306;SDS011;3186;54.062;9.962;2023-04-15T11:14:40;21.13;;;15.03;;
6306;SDS011;3186;54.062;9.962;2023-04-15T11:17:07;19.53;;;14.50;;
6306;SDS011;3186;54.062;9.962;2023-04-15T11:19:37;20.87;;;14.90;;
6306;SDS011;3186;54.062;9.962;2023-04-15T11:22:07;20.07;;;15.17;;
6306;SDS011;3186;54.062;9.962;2023-04-15T11:24:34;20.60;;;16.13;;
6306;SDS011;3186;54.062;9.962;2023-04-15T11:27:01;22.13;;;16.27;;
6306;SDS011;3186;54.062;9.962;2023-04-15T11:29:30;17.93;;;14.57;;
6306;SDS011;3186;54.062;9.962;2023-04-15T11:32:07;19.57;;;15.40;;
6306;SDS011;3186;54.062;9.962;2023-04-15T11:34:33;19.70;;;15.27;;
6306;SDS011;3186;54.062;9.962;2023-04-15T11:37:05;18.53;;;14.87;;
6306;SDS011;3186;54.062;9.962;2023-04-15T11:39:32;21.07;;;14.63;;
6306;SDS011;3186;54.062;9.962;2023-04-15T11:41:58;17.30;;;13.90;;
6306;SDS011;3186;54.062;9.962;2023-04-15T11:44:23;20.33;;;15.07;;
6306;SDS011;3186;54.062;9.962;2023-04-15T11:46:49;17.47;;;14.40;;
6306;SDS011;3186;54.062;9.962;2023-04-15T11:49:25;17.13;;;14.00;;
6306;SDS011;3186;54.062;9.962;2023-04-15T11:51:55;20.53;;;14.43;;
6306;SDS011;3186;54.062;9.962;2023-04-15T11:54:21;18.40;;;14.27;;
6306;SDS011;3186;54.062;9.962;2023-04-15T11:56:50;18.20;;;13.97;;
6306;SDS011;3186;54.062;9.962;2023-04-15T11:59:16;18.77;;;14.03;;
6306;SDS011;3186;54.062;9.962;2023-04-15T12:01:42;16.90;;;13.77;;
6306;SDS011;3186;54.062;9.962;2023-04-15T12:04:11;19.43;;;14.50;;
6306;SDS011;3186;54.062;9.962;2023-04-15T12:06:37;20.50;;;14.80;;
6306;SDS011;3186;54.062;9.962;2023-04-15T12:11:35;19.73;;;14.00;;
6306;SDS011;3186;54.062;9.962;2023-04-15T12:14:09;18.00;;;13.77;;
6306;SDS011;3186;54.062;9.962;2023-04-15T12:16:39;18.23;;;13.67;;
6306;SDS011;3186;54.062;9.962;2023-04-15T12:19:09;15.03;;;13.13;;
6306;SDS011;3186;54.062;9.962;2023-04-15T12:21:37;17.40;;;12.70;;
6306;SDS011;3186;54.062;9.962;2023-04-15T12:24:05;17.80;;;13.40;;
6306;SDS011;3186;54.062;9.962;2023-04-15T12:26:34;16.27;;;12.77;;
6306;SDS011;3186;54.062;9.962;2023-04-15T12:29:01;18.10;;;13.00;;
6306;SDS011;3186;54.062;9.962;2023-04-15T12:31:28;13.83;;;11.90;;
6306;SDS011;3186;54.062;9.962;2023-04-15T12:33:58;14.00;;;11.23;;
6306;SDS011;3186;54.062;9.962;2023-04-15T12:36:25;15.33;;;12.00;;
6306;SDS011;3186;54.062;9.962;2023-04-15T12:38:51;15.80;;;11.90;;
6306;SDS011;3186;54.062;9.962;2023-04-15T12:41:18;17.20;;;12.10;;
6306;SDS011;3186;54.062;9.962;2023-04-15T12:43:46;16.67;;;12.10;;
6306;SDS011;3186;54.062;9.962;2023-04-15T12:46:12;14.07;;;11.53;;
6306;SDS011;3186;54.062;9.962;2023-04-15T12:48:39;15.77;;;11.70;;
6306;SDS011;3186;54.062;9.962;2023-04-15T12:51:05;22.47;;;11.57;;
6306;SDS011;3186;54.062;9.962;2023-04-15T12:53:31;14.77;;;12.77;;
6306;SDS011;3186;54.062;9.962;2023-04-15T12:55:57;16.77;;;12.20;;
6306;SDS011;3186;54.062;9.962;2023-04-15T12:58:23;15.50;;;12.97;;
6306;SDS011;3186;54.062;9.962;2023-04-15T13:00:49;15.47;;;12.93;;
6306;SDS011;3186;54.062;9.962;2023-04-15T13:03:15;17.73;;;12.73;;
6306;SDS011;3186;54.062;9.962;2023-04-15T13:05:40;27.30;;;15.20;;
6306;SDS011;3186;54.062;9.962;2023-04-15T13:08:07;18.93;;;14.23;;
6306;SDS011;3186;54.062;9.962;2023-04-15T13:10:34;25.40;;;14.20;;
6306;SDS011;3186;54.062;9.962;2023-04-15T13:13:03;26.90;;;15.67;;
6306;SDS011;3186;54.062;9.962;2023-04-15T13:15:30;22.07;;;15.10;;
6306;SDS011;3186;54.062;9.962;2023-04-15T13:17:56;19.93;;;14.13;;
6306;SDS011;3186;54.062;9.962;2023-04-15T13:20:22;21.73;;;14.27;;
6306;SDS011;3186;54.062;9.962;2023-04-15T13:22:47;24.77;;;15.07;;
6306;SDS011;3186;54.062;9.962;2023-04-15T13:25:13;17.37;;;13.97;;
6306;SDS011;3186;54.062;9.962;2023-04-15T13:27:39;19.67;;;14.50;;
6306;SDS011;3186;54.062;9.962;2023-04-15T13:30:05;18.70;;;13.73;;
6306;SDS011;3186;54.062;9.962;2023-04-15T13:32:31;17.53;;;13.90;;
6306;SDS011;3186;54.062;9.962;2023-04-15T13:34:57;19.60;;;14.23;;
6306;SDS011;3186;54.062;9.962;2023-04-15T13:37:27;19.63;;;14.03;;
6306;SDS011;3186;54.062;9.962;2023-04-15T13:39:54;15.97;;;13.40;;
6306;SDS011;3186;54.062;9.962;2023-04-15T13:42:21;17.37;;;13.33;;
6306;SDS011;3186;54.062;9.962;2023-04-15T13:44:51;16.70;;;13.90;;
6306;SDS011;3186;54.062;9.962;2023-04-15T13:47:18;19.50;;;15.10;;
6306;SDS011;3186;54.062;9.962;2023-04-15T13:49:44;17.27;;;13.97;;
6306;SDS011;3186;54.062;9.962;2023-04-15T13:52:10;18.90;;;13.60;;
6306;SDS011;3186;54.062;9.962;2023-04-15T13:54:36;15.03;;;12.90;;
6306;SDS011;3186;54.062;9.962;2023-04-15T13:57:02;15.90;;;12.70;;
6306;SDS011;3186;54.062;9.962;2023-04-15T13:59:29;15.90;;;13.00;;
6306;SDS011;3186;54.062;9.962;2023-04-15T14:01:54;18.73;;;13.93;;
6306;SDS011;3186;54.062;9.962;2023-04-15T14:04:20;18.20;;;14.17;;
6306;SDS011;3186;54.062;9.962;2023-04-15T14:06:46;18.27;;;14.73;;
6306;SDS011;3186;54.062;9.962;2023-04-15T14:09:13;15.80;;;13.73;;
6306;SDS011;3186;54.062;9.962;2023-04-15T14:11:39;16.37;;;13.30;;
6306;SDS011;3186;54.062;9.962;2023-04-15T14:14:05;16.47;;;13.80;;
6306;SDS011;3186;54.062;9.962;2023-04-15T14:16:31;16.23;;;13.63;;
6306;SDS011;3186;54.062;9.962;2023-04-15T14:18:57;15.73;;;12.40;;
6306;SDS011;3186;54.062;9.962;2023-04-15T14:21:24;16.60;;;13.30;;
6306;SDS011;3186;54.062;9.962;2023-04-15T14:23:52;14.13;;;12.53;;
6306;SDS011;3186;54.062;9.962;2023-04-15T14:26:18;16.43;;;13.13;;
6306;SDS011;3186;54.062;9.962;2023-04-15T14:28:44;16.70;;;13.17;;
6306;SDS011;3186;54.062;9.962;2023-04-15T14:31:10;16.07;;;13.00;;
6306;SDS011;3186;54.062;9.962;2023-04-15T14:33:35;20.00;;;13.73;;
6306;SDS011;3186;54.062;9.962;2023-04-15T14:36:01;21.03;;;14.17;;
6306;SDS011;3186;54.062;9.962;2023-04-15T14:38:27;18.17;;;12.77;;
6306;SDS011;3186;54.062;9.962;2023-04-15T14:40:53;15.00;;;12.87;;
6306;SDS011;3186;54.062;9.962;2023-04-15T14:43:19;18.23;;;13.13;;
6306;SDS011;3186;54.062;9.962;2023-04-15T14:45:45;18.57;;;13.13;;
6306;SDS011;3186;54.062;9.962;2023-04-15T14:48:12;14.10;;;12.57;;
6306;SDS011;3186;54.062;9.962;2023-04-15T14:50:38;14.93;;;12.03;;
6306;SDS011;3186;54.062;9.962;2023-04-15T14:53:04;17.90;;;13.70;;
6306;SDS011;3186;54.062;9.962;2023-04-15T14:55:30;18.23;;;13.30;;
6306;SDS011;3186;54.062;9.962;2023-04-15T14:57:56;18.07;;;13.33;;
6306;SDS011;3186;54.062;9.962;2023-04-15T15:00:22;16.30;;;13.63;;
6306;SDS011;3186;54.062;9.962;2023-04-15T15:02:47;17.10;;;14.23;;